createdAt,value
2022-11-08T00:09:18.112Z,93.42
2022-11-08T00:19:39.571Z,93.25
2022-11-08T00:30:00.985Z,92.88
2022-11-08T00:40:22.392Z,92.86
2022-11-08T00:50:43.910Z,93.30
2022-11-08T01:01:10.763Z,93.02
2022-11-08T01:11:32.534Z,93.16
2022-11-08T01:21:53.842Z,92.85
2022-11-08T01:32:15.256Z,92.57
2022-11-08T01:42:36.842Z,93.00
2022-11-08T01:52:58.178Z,93.54
2022-11-08T02:03:20.879Z,93.00
2022-11-08T02:13:42.520Z,93.06
2022-11-08T02:24:08.083Z,93.48
2022-11-08T02:34:49.158Z,93.68
2022-11-08T02:45:10.856Z,94.01
2022-11-08T02:55:33.170Z,94.76
2022-11-08T03:05:56.787Z,94.73
2022-11-08T03:16:18.203Z,95.25
2022-11-08T03:26:39.615Z,95.47
2022-11-08T03:37:01.040Z,95.80
2022-11-08T03:47:22.499Z,96.39
2022-11-08T03:57:46.449Z,95.96
2022-11-08T04:08:08.124Z,95.99
2022-11-08T04:18:48.118Z,96.84
2022-11-08T04:29:09.930Z,95.62
2022-11-08T04:39:31.254Z,96.56
2022-11-08T04:49:54.209Z,96.48
2022-11-08T05:00:16.630Z,96.60
2022-11-08T05:10:38.047Z,96.51
2022-11-08T05:21:19.798Z,96.68
2022-11-08T05:31:41.793Z,96.30
2022-11-08T05:42:04.808Z,96.52
2022-11-08T05:52:26.262Z,97.10
2022-11-08T06:02:47.760Z,97.00
2022-11-08T06:13:09.274Z,97.30
2022-11-08T06:23:31.485Z,97.29
2022-11-08T06:33:53.005Z,97.25
2022-11-08T06:44:14.411Z,96.96
2022-11-08T06:54:35.836Z,96.29
2022-11-08T07:04:57.271Z,96.25
2022-11-08T07:15:18.738Z,94.64
2022-11-08T07:25:40.244Z,94.03
2022-11-08T07:36:02.180Z,94.10
2022-11-08T07:46:23.598Z,93.31
2022-11-08T07:56:45.084Z,93.00
2022-11-08T08:07:07.147Z,92.18
2022-11-08T08:17:28.615Z,91.26
2022-11-08T08:27:51.916Z,90.08
2022-11-08T08:38:13.819Z,89.44
2022-11-08T08:48:35.876Z,89.19
2022-11-08T09:09:38.812Z,87.12
2022-11-08T09:20:00.434Z,87.37
2022-11-08T09:30:21.924Z,85.92
2022-11-08T09:40:59.371Z,84.46
2022-11-08T09:51:24.379Z,84.52
2022-11-08T10:01:45.907Z,84.58
2022-11-08T10:12:22.576Z,83.23
2022-11-08T10:23:23.012Z,82.75
2022-11-08T10:33:53.013Z,83.39
2022-11-08T10:44:24.314Z,82.21
2022-11-08T10:54:45.698Z,82.42
2022-11-08T11:05:16.310Z,81.00
2022-11-08T11:15:37.723Z,80.88
2022-11-08T11:25:59.216Z,79.78
2022-11-08T11:36:25.005Z,79.55
2022-11-08T11:47:00.027Z,77.76
2022-11-08T11:57:32.843Z,77.39
2022-11-08T12:08:34.309Z,73.33
2022-11-08T12:19:04.914Z,75.93
2022-11-08T12:29:34.194Z,77.78
2022-11-08T12:40:02.467Z,74.76
2022-11-08T12:50:33.284Z,73.34
2022-11-08T13:00:59.214Z,76.96
2022-11-08T13:12:00.216Z,72.18
2022-11-08T13:22:33.961Z,70.83
2022-11-08T13:33:14.882Z,74.00
2022-11-08T13:43:36.696Z,71.32
2022-11-08T13:54:21.703Z,75.77
2022-11-08T14:04:43.846Z,75.54
2022-11-08T14:15:27.510Z,72.26
2022-11-08T14:26:02.450Z,72.02
2022-11-08T14:36:25.924Z,68.51
2022-11-08T14:46:48.908Z,71.84
2022-11-08T14:57:31.219Z,68.83
2022-11-08T15:07:53.313Z,69.86
2022-11-08T15:18:17.366Z,69.39
2022-11-08T15:28:39.186Z,67.74
2022-11-08T15:39:02.321Z,66.92
2022-11-08T15:49:26.696Z,67.64
2022-11-08T15:59:48.483Z,69.19
2022-11-08T16:10:11.093Z,67.97
2022-11-08T16:20:37.034Z,68.57
2022-11-08T16:30:58.892Z,68.66
2022-11-08T16:41:22.052Z,68.27
2022-11-08T16:51:43.854Z,69.38
2022-11-08T17:02:18.509Z,69.92
2022-11-08T17:12:40.375Z,70.23
2022-11-08T17:23:02.570Z,70.39
2022-11-08T17:33:24.342Z,70.86
2022-11-08T17:43:46.138Z,71.58
2022-11-08T17:54:08.210Z,72.88
2022-11-08T18:04:30.285Z,72.84
2022-11-08T18:14:52.564Z,72.30
2022-11-08T18:25:15.456Z,73.73
2022-11-08T18:35:37.995Z,74.61
2022-11-08T18:46:08.317Z,73.96
2022-11-08T18:56:30.179Z,75.31
2022-11-08T19:06:54.745Z,75.33
2022-11-08T19:17:16.797Z,75.28
2022-11-08T19:27:38.548Z,76.63
2022-11-08T19:38:00.314Z,76.54
2022-11-08T19:48:22.399Z,77.46
2022-11-08T19:58:45.169Z,78.33
2022-11-08T20:09:09.228Z,78.55
2022-11-08T20:19:30.983Z,78.74
2022-11-08T20:29:52.868Z,78.44
2022-11-08T20:40:14.960Z,79.96
2022-11-08T20:50:39.085Z,80.36
2022-11-08T21:01:02.546Z,81.15
2022-11-08T21:11:24.319Z,81.62
2022-11-08T21:21:48.716Z,81.89
2022-11-08T21:32:10.491Z,82.56
2022-11-08T21:42:35.385Z,83.03
2022-11-08T21:53:01.917Z,83.28
2022-11-08T22:03:23.721Z,83.97
2022-11-08T22:13:45.483Z,84.41
2022-11-08T22:24:20.303Z,84.51
2022-11-08T22:34:42.232Z,84.48
2022-11-08T22:45:04.330Z,85.02
2022-11-08T22:55:26.267Z,85.67
2022-11-08T23:05:49.906Z,86.55
2022-11-08T23:16:30.036Z,86.12
2022-11-08T23:27:10.405Z,87.50
2022-11-08T23:37:32.152Z,88.25
2022-11-08T23:47:53.925Z,87.01
2022-11-08T23:58:15.828Z,87.25
